Time;durP1;ratioP1;P1;durP2;ratioP2;P2;SDS_P1;SDS_P2;PMS_P1;PMS_P2;Temp;Humidity;BMP_temperature;BMP_pressure;BME280_temperature;BME280_humidity;BME280_pressure;Samples;Min_cycle;Max_cycle;Signal;HPM_P1;HPM_P2
2022/09/20 00:02:12;;;;;;;7.80;1.80;;;;;;;10.13;91.66;101095.66;5077921;28;20670;-82
2022/09/20 00:04:38;;;;;;;6.50;1.47;;;;;;;10.14;92.08;101086.72;5078581;28;20216;-82
2022/09/20 00:07:05;;;;;;;5.30;1.63;;;;;;;10.14;91.60;101096.50;5071800;28;20201;-82
2022/09/20 00:09:32;;;;;;;7.53;2.10;;;;;;;10.14;92.17;101101.84;5070095;28;20200;-83
2022/09/20 00:11:58;;;;;;;4.93;1.47;;;;;;;10.14;92.14;101116.00;5070900;28;20693;-80
2022/09/20 00:14:26;;;;;;;7.63;1.70;;;;;;;10.13;92.16;101111.63;5078376;28;20228;-82
2022/09/20 00:16:53;;;;;;;4.17;1.40;;;;;;;10.14;91.97;101116.00;5080163;28;20577;-81
2022/09/20 00:19:21;;;;;;;6.13;1.47;;;;;;;10.14;91.96;101110.69;5079463;28;20212;-82
2022/09/20 00:21:48;;;;;;;8.30;1.40;;;;;;;10.14;91.82;101112.47;5074927;28;20204;-82
2022/09/20 00:24:14;;;;;;;5.07;1.17;;;;;;;10.12;91.91;101104.56;5071805;28;20317;-82
2022/09/20 00:26:41;;;;;;;5.80;1.63;;;;;;;10.11;92.04;101100.19;5079559;28;20200;-83
2022/09/20 00:29:07;;;;;;;5.97;1.70;;;;;;;10.11;92.04;101100.19;5069747;28;20612;-81
2022/09/20 00:31:38;;;;;;;4.73;1.80;;;;;;;10.10;92.23;101101.13;5070182;28;20228;-83
2022/09/20 00:36:50;;;;;;;5.47;1.33;;;;;;;10.09;92.59;101105.59;5069724;28;20283;-83
2022/09/20 00:39:17;;;;;;;7.00;1.23;;;;;;;10.09;92.58;101110.91;5074651;28;20207;-83
2022/09/20 00:41:43;;;;;;;6.67;1.10;;;;;;;10.08;92.55;101111.00;5072317;28;20205;-83
2022/09/20 00:44:47;;;;;;;6.77;1.40;;;;;;;10.05;92.59;101113.81;5085416;28;20215;-83
2022/09/20 00:47:24;;;;;;;6.33;1.37;;;;;;;10.04;92.34;101112.97;5076624;28;20283;-82
2022/09/20 00:49:56;;;;;;;7.20;1.57;;;;;;;10.03;92.40;101110.41;5060309;28;20611;-83
2022/09/20 00:52:23;;;;;;;4.13;1.47;;;;;;;10.02;92.58;101106.03;5073990;28;20237;-82
2022/09/20 00:54:50;;;;;;;7.23;2.20;;;;;;;10.00;92.74;101107.91;5073492;28;20666;-83
2022/09/20 00:57:17;;;;;;;6.63;1.67;;;;;;;9.98;92.63;101107.13;5067290;28;20211;-83
2022/09/20 00:59:46;;;;;;;6.03;1.80;;;;;;;9.96;92.50;101104.53;5074213;28;20208;-82
2022/09/20 01:02:17;;;;;;;5.60;1.77;;;;;;;9.96;93.02;101114.31;5067281;28;20236;-83
2022/09/20 01:04:46;;;;;;;6.40;1.87;;;;;;;9.94;93.00;101110.88;5071941;28;20283;-82
2022/09/20 01:07:16;;;;;;;8.43;2.10;;;;;;;9.93;92.68;101103.84;5067539;28;20200;-83
2022/09/20 01:09:42;;;;;;;5.93;1.70;;;;;;;9.92;93.09;101115.44;5070440;28;20216;-83
2022/09/20 01:12:13;;;;;;;6.77;1.67;;;;;;;9.91;92.63;101113.69;5064815;28;20226;-82
2022/09/20 01:14:42;;;;;;;3.87;1.77;;;;;;;9.88;92.85;101112.06;5075703;28;20269;-82
2022/09/20 01:17:10;;;;;;;5.70;2.27;;;;;;;9.88;93.14;101117.38;5070517;28;20209;-82
2022/09/20 01:19:43;;;;;;;5.33;2.20;;;;;;;9.85;92.89;101108.72;5074873;28;20215;-82
2022/09/20 01:22:20;;;;;;;5.13;1.90;;;;;;;9.84;93.37;101115.00;5063511;28;20229;-83
2022/09/20 01:24:54;;;;;;;9.43;2.67;;;;;;;9.82;93.10;101112.41;5067699;28;20205;-82
2022/09/20 01:27:23;;;;;;;6.03;1.77;;;;;;;9.80;93.38;101110.75;5069570;28;20208;-82
2022/09/20 01:30:03;;;;;;;7.50;1.70;;;;;;;9.79;93.54;101114.38;5065589;28;20208;-81
2022/09/20 01:32:42;;;;;;;11.67;2.17;;;;;;;9.75;93.45;101101.22;5073692;28;20319;-83
2022/09/20 01:35:10;;;;;;;7.17;2.10;;;;;;;9.74;93.20;101114.59;5071858;28;20196;-82
2022/09/20 01:37:47;;;;;;;7.97;2.20;;;;;;;9.73;93.25;101115.53;5085199;28;20758;-83
2022/09/20 01:40:20;;;;;;;6.77;2.40;;;;;;;9.72;93.42;101121.78;5067928;28;20573;-83
2022/09/20 01:42:55;;;;;;;11.93;2.27;;;;;;;9.71;93.97;101120.06;5077774;28;20222;-82
2022/09/20 01:45:28;;;;;;;5.90;1.83;;;;;;;9.70;93.90;101119.22;5081062;28;20201;-83
2022/09/20 01:48:04;;;;;;;5.33;2.27;;;;;;;9.71;93.73;101115.63;5074242;28;20221;-81
2022/09/20 01:50:36;;;;;;;6.03;1.90;;;;;;;9.72;94.09;101109.34;5077783;28;20211;-83
2022/09/20 01:53:29;;;;;;;6.13;1.80;;;;;;;9.73;93.95;101121.72;5075919;28;20232;-82
2022/09/20 01:56:31;;;;;;;5.77;1.80;;;;;;;9.73;94.16;101113.72;5073153;28;20201;-82
2022/09/20 01:59:31;;;;;;;3.53;1.40;;;;;;;9.74;94.60;101119.91;5074107;28;20198;-83
2022/09/20 02:02:25;;;;;;;4.53;1.40;;;;;;;9.75;94.65;101111.84;5074093;28;20588;-83
2022/09/20 02:05:30;;;;;;;6.00;2.23;;;;;;;9.75;94.32;101111.84;5056545;28;20205;-82
2022/09/20 02:08:34;;;;;;;5.73;1.60;;;;;;;9.78;94.48;101121.47;5080275;28;20197;-82
2022/09/20 02:11:09;;;;;;;9.23;1.80;;;;;;;9.80;94.93;101124.06;5070091;28;20197;-82
2022/09/20 02:13:55;;;;;;;8.00;1.97;;;;;;;9.80;94.99;101126.72;5074659;28;20213;-84
2022/09/20 02:16:35;;;;;;;5.07;1.60;;;;;;;9.83;95.05;101126.56;5073118;28;20197;-83
2022/09/20 02:19:21;;;;;;;9.37;2.00;;;;;;;9.83;95.18;101129.22;5072915;28;20204;-84
2022/09/20 02:21:58;;;;;;;9.53;2.13;;;;;;;9.84;95.14;101131.81;5074298;28;20208;-83
2022/09/20 02:24:34;;;;;;;11.23;2.37;;;;;;;9.85;94.88;101132.69;5078740;28;20209;-83
2022/09/20 02:27:13;;;;;;;7.23;1.70;;;;;;;9.87;95.23;101136.09;5067678;28;20213;-83
2022/09/20 02:29:48;;;;;;;8.17;1.97;;;;;;;9.88;95.52;101133.34;5076465;28;20200;-83
2022/09/20 02:32:28;;;;;;;9.30;2.27;;;;;;;9.89;95.37;101134.22;5074058;28;20232;-83
2022/09/20 02:35:15;;;;;;;8.17;2.13;;;;;;;9.90;95.49;101133.28;5073816;28;20212;-83
2022/09/20 02:38:05;;;;;;;4.43;1.70;;;;;;;9.90;95.39;101135.94;5075837;28;20212;-83
2022/09/20 02:41:00;;;;;;;8.70;2.03;;;;;;;9.91;94.96;101127.88;5061750;28;20202;-83
2022/09/20 02:43:35;;;;;;;11.60;2.33;;;;;;;9.92;95.31;101134.06;5069032;28;20226;-83
2022/09/20 02:46:08;;;;;;;7.73;1.80;;;;;;;9.91;95.03;101137.66;5073893;28;20212;-84
2022/09/20 02:48:43;;;;;;;8.67;1.90;;;;;;;9.91;95.11;101140.31;5074974;28;20588;-83
2022/09/20 02:51:18;;;;;;;6.80;1.97;;;;;;;9.89;95.23;101136.88;5077605;28;20268;-83
2022/09/20 02:53:55;;;;;;;8.80;2.57;;;;;;;9.89;94.76;101147.50;5073649;28;20302;-83
2022/09/20 02:56:29;;;;;;;8.13;2.03;;;;;;;9.88;94.57;101149.31;5069403;28;20208;-83
2022/09/20 02:59:04;;;;;;;4.37;1.57;;;;;;;9.87;94.40;101157.38;5069761;28;20212;-83
2022/09/20 03:01:42;;;;;;;6.60;1.50;;;;;;;9.87;94.79;101152.03;5071142;28;20216;-83
2022/09/20 03:04:24;;;;;;;5.30;1.50;;;;;;;9.87;95.13;101149.38;5081850;28;20669;-83
2022/09/20 03:06:58;;;;;;;6.43;2.20;;;;;;;9.83;94.50;101140.72;5068721;28;20201;-83
2022/09/20 03:09:31;;;;;;;7.83;2.60;;;;;;;9.82;94.33;101156.78;5081227;28;20620;-83
2022/09/20 03:12:06;;;;;;;6.17;1.87;;;;;;;9.81;94.29;101152.38;5081447;28;20243;-83
2022/09/20 03:14:37;;;;;;;8.80;2.13;;;;;;;9.80;94.92;101153.31;5073166;28;20271;-83
2022/09/20 03:17:16;;;;;;;6.30;2.27;;;;;;;9.79;94.35;101159.59;5079763;28;20216;-82
2022/09/20 03:20:00;;;;;;;10.10;2.00;;;;;;;9.77;94.55;101150.81;5081200;28;20204;-83
2022/09/20 03:22:41;;;;;;;8.77;1.87;;;;;;;9.77;94.85;101148.16;5066142;28;20236;-83
2022/09/20 03:25:36;;;;;;;4.47;1.80;;;;;;;9.79;94.80;101154.25;5071639;28;20659;-82
2022/09/20 03:28:15;;;;;;;9.00;2.30;;;;;;;9.78;94.83;101152.53;5078778;28;20204;-82
2022/09/20 03:30:51;;;;;;;5.73;1.87;;;;;;;9.77;94.67;101156.13;5069564;28;20208;-82
2022/09/20 03:33:31;;;;;;;4.00;2.10;;;;;;;9.76;94.57;101160.59;5076924;28;20235;-82
2022/09/20 03:36:12;;;;;;;7.90;2.23;;;;;;;9.76;94.62;101160.59;5071669;28;20192;-83
2022/09/20 03:39:09;;;;;;;6.93;2.80;;;;;;;9.76;94.51;101157.94;5064737;28;20193;-82
2022/09/20 03:41:59;;;;;;;7.27;2.37;;;;;;;9.77;94.95;101153.47;5063071;28;20211;-83
2022/09/20 03:45:04;;;;;;;4.83;1.83;;;;;;;9.75;94.57;101165.06;5076077;28;20193;-83
2022/09/20 03:47:52;;;;;;;6.40;2.10;;;;;;;9.78;94.55;101166.72;5043663;28;20766;-83
2022/09/20 03:50:34;;;;;;;6.50;1.90;;;;;;;9.77;94.82;101158.81;5070951;28;20200;-83
2022/09/20 03:53:21;;;;;;;8.17;2.30;;;;;;;9.77;94.78;101158.81;5070468;28;20228;-83
2022/09/20 03:56:05;;;;;;;9.57;2.40;;;;;;;9.79;94.72;101167.56;5076729;28;20205;-83
2022/09/20 03:58:57;;;;;;;8.17;2.53;;;;;;;9.80;94.69;101162.16;5067874;28;20205;-83
2022/09/20 04:01:38;;;;;;;4.57;2.50;;;;;;;9.82;95.09;101168.28;5063658;28;20248;-83
2022/09/20 04:04:15;;;;;;;6.23;2.27;;;;;;;9.83;95.31;101163.81;5070999;28;20204;-83
2022/09/20 04:06:58;;;;;;;6.97;2.17;;;;;;;9.84;94.99;101169.06;5078080;28;20681;-83
2022/09/20 04:09:47;;;;;;;9.83;2.70;;;;;;;9.87;95.68;101174.19;5066780;28;20230;-83
2022/09/20 04:12:26;;;;;;;8.33;2.47;;;;;;;9.89;95.58;101177.63;5068788;28;20700;-82
2022/09/20 04:15:01;;;;;;;8.87;2.33;;;;;;;9.89;94.95;101174.97;5074454;28;20211;-83
2022/09/20 04:17:38;;;;;;;5.87;2.00;;;;;;;9.90;95.40;101179.34;5073745;28;20294;-83
2022/09/20 04:20:13;;;;;;;6.17;2.27;;;;;;;9.93;95.50;101188.97;5079122;28;20207;-84
2022/09/20 04:22:43;;;;;;;8.10;1.97;;;;;;;9.93;95.17;101183.66;5061748;28;20217;-83
2022/09/20 04:25:16;;;;;;;8.40;1.70;;;;;;;9.94;95.56;101186.25;5062391;28;20763;-83
2022/09/20 04:27:48;;;;;;;9.57;2.17;;;;;;;9.94;95.52;101180.94;5061513;28;20201;-83
2022/09/20 04:30:18;;;;;;;6.93;2.83;;;;;;;9.95;95.05;101184.44;5064321;28;20587;-83
2022/09/20 04:32:51;;;;;;;7.80;2.40;;;;;;;9.95;95.00;101187.09;5060111;28;20221;-82
2022/09/20 04:38:19;;;;;;;7.40;2.23;;;;;;;9.96;95.07;101189.69;5069908;28;20280;-83
2022/09/20 04:41:18;;;;;;;6.30;2.17;;;;;;;9.97;95.38;101193.22;5064367;28;20217;-83
2022/09/20 04:44:30;;;;;;;5.70;2.03;;;;;;;9.98;94.99;101187.81;5047377;28;20230;-83
2022/09/20 04:47:24;;;;;;;7.97;2.63;;;;;;;9.99;95.15;101194.00;4998719;28;20205;-82
2022/09/20 04:53:56;;;;;;;7.73;3.43;;;;;;;10.01;95.51;101194.78;5057766;28;20323;-83
2022/09/20 04:56:32;;;;;;;8.93;3.27;;;;;;;10.01;95.21;101200.97;5070053;28;20852;-83
2022/09/20 04:59:06;;;;;;;8.97;3.20;;;;;;;10.03;95.56;101200.88;5064899;28;20204;-83
2022/09/20 05:02:21;;;;;;;10.87;3.83;;;;;;;10.05;95.50;101212.28;5059846;28;20596;-83
2022/09/20 05:05:30;;;;;;;9.90;3.90;;;;;;;10.06;95.38;101212.22;5056342;28;20843;-83
2022/09/20 05:08:39;;;;;;;10.87;3.70;;;;;;;10.08;95.73;101214.78;5037660;28;20610;-84
2022/09/20 05:11:29;;;;;;;10.03;4.50;;;;;;;10.09;95.47;101213.84;5067392;28;20193;-84
2022/09/20 05:14:17;;;;;;;7.27;4.00;;;;;;;10.10;95.29;101218.22;5067663;28;20241;-83
2022/09/20 05:17:00;;;;;;;8.07;3.93;;;;;;;10.11;95.58;101227.94;5066368;28;20202;-84
2022/09/20 05:19:33;;;;;;;13.17;4.13;;;;;;;10.11;96.01;101225.28;5069620;28;20288;-83
2022/09/20 05:22:24;;;;;;;10.13;4.47;;;;;;;10.12;95.79;101228.81;5079056;28;20213;-83
2022/09/20 05:25:21;;;;;;;12.60;5.00;;;;;;;10.14;95.36;101238.44;5074958;28;20675;-84
2022/09/20 05:27:53;;;;;;;13.07;5.27;;;;;;;10.12;95.82;101221.69;5073833;28;20205;-83
2022/09/20 05:30:32;;;;;;;8.67;5.17;;;;;;;10.14;95.64;101227.78;5067131;28;20207;-84
2022/09/20 05:33:10;;;;;;;11.73;4.47;;;;;;;10.15;95.90;101226.00;5072398;28;20217;-84
2022/09/20 05:35:44;;;;;;;12.57;4.60;;;;;;;10.17;95.90;101224.97;5071813;28;20686;-84
2022/09/20 05:38:21;;;;;;;9.67;4.33;;;;;;;10.18;95.90;101232.03;5076011;28;20203;-84
2022/09/20 05:41:05;;;;;;;11.13;5.47;;;;;;;10.18;96.13;101240.00;5076108;28;20211;-83
2022/09/20 05:43:35;;;;;;;11.10;5.37;;;;;;;10.20;96.15;101229.31;5075421;28;20556;-83
2022/09/20 05:46:16;;;;;;;11.03;4.63;;;;;;;10.22;95.80;101238.06;5078935;28;20557;-84
2022/09/20 05:49:02;;;;;;;10.47;4.93;;;;;;;10.22;96.14;101241.56;5070066;28;20603;-83
2022/09/20 05:51:51;;;;;;;9.30;4.40;;;;;;;10.24;96.09;101242.34;5069088;28;20233;-84
2022/09/20 05:54:35;;;;;;;10.73;5.57;;;;;;;10.27;95.93;101244.00;5075258;28;20623;-83
2022/09/20 05:57:18;;;;;;;13.70;5.03;;;;;;;10.29;96.05;101245.66;5066398;28;20208;-84
2022/09/20 05:59:59;;;;;;;14.40;6.03;;;;;;;10.32;96.07;101255.28;5064574;28;20209;-83
2022/09/20 06:02:35;;;;;;;12.80;6.47;;;;;;;10.33;96.08;101257.00;5071510;28;20236;-83
2022/09/20 06:05:09;;;;;;;13.07;5.63;;;;;;;10.34;96.13;101264.06;5076392;28;20683;-84
2022/09/20 06:07:55;;;;;;;10.53;5.40;;;;;;;10.36;95.77;101265.69;5068846;28;20799;-84
2022/09/20 06:11:07;;;;;;;10.07;4.90;;;;;;;10.37;95.62;101267.41;5072011;28;20209;-84
2022/09/20 06:13:49;;;;;;;10.73;4.43;;;;;;;10.39;95.81;101268.16;5055677;28;20233;-83
2022/09/20 06:16:27;;;;;;;8.33;4.10;;;;;;;10.38;95.73;101261.16;5074945;28;20200;-83
2022/09/20 06:19:04;;;;;;;13.60;4.20;;;;;;;10.38;95.76;101261.16;5074754;28;20607;-84
2022/09/20 06:21:44;;;;;;;9.23;3.73;;;;;;;10.38;95.40;101269.13;5071058;28;20193;-83
2022/09/20 06:24:24;;;;;;;10.37;4.10;;;;;;;10.39;95.73;101268.16;5072564;28;20251;-83
2022/09/20 06:26:55;;;;;;;8.63;3.17;;;;;;;10.38;95.62;101270.94;5074099;28;20208;-83
2022/09/20 06:29:30;;;;;;;7.37;3.30;;;;;;;10.39;95.31;101273.50;5071622;28;20593;-83
2022/09/20 06:31:56;;;;;;;7.17;3.00;;;;;;;10.38;95.34;101277.13;5066242;28;20492;-83
2022/09/20 06:34:23;;;;;;;9.57;3.50;;;;;;;10.39;95.53;101278.81;5072569;28;20236;-83
2022/09/20 06:42:30;;;;;;;12.30;4.27;;;;;;;10.43;95.60;101285.72;5068889;28;20227;-83
2022/09/20 06:44:57;;;;;;;6.03;2.63;;;;;;;10.45;95.84;101282.97;5067519;28;20198;-83
2022/09/20 06:47:24;;;;;;;10.07;3.63;;;;;;;10.48;95.97;101292.59;5075258;28;20200;-83
2022/09/20 06:49:51;;;;;;;10.23;3.63;;;;;;;10.49;96.08;101294.34;5063388;28;20206;-82
2022/09/20 06:52:19;;;;;;;8.17;3.07;;;;;;;10.50;96.17;101293.38;5072239;28;20226;-82
2022/09/20 06:54:50;;;;;;;9.70;3.07;;;;;;;10.52;96.08;101303.03;5071199;28;20228;-82
2022/09/20 06:57:21;;;;;;;7.43;2.50;;;;;;;10.53;95.94;101301.22;5068486;28;20573;-82
2022/09/20 06:59:48;;;;;;;10.50;3.00;;;;;;;10.55;96.39;101304.66;5070915;28;20213;-82
2022/09/20 07:02:14;;;;;;;5.93;2.50;;;;;;;10.57;96.45;101300.13;5069494;28;20225;-82
2022/09/20 07:04:42;;;;;;;7.70;3.10;;;;;;;10.59;96.57;101303.53;5069932;28;20663;-82
2022/09/20 07:07:16;;;;;;;6.80;2.63;;;;;;;10.60;96.51;101307.94;5065049;28;20684;-82
2022/09/20 07:09:43;;;;;;;9.30;2.60;;;;;;;10.61;96.59;101309.66;5069024;28;20205;-83
2022/09/20 07:12:11;;;;;;;10.27;3.37;;;;;;;10.63;96.43;101310.44;5071110;28;20256;-81
2022/09/20 07:14:38;;;;;;;5.70;2.60;;;;;;;10.65;96.51;101313.88;5078651;28;20223;-82
2022/09/20 07:17:05;;;;;;;8.33;2.67;;;;;;;10.68;96.54;101305.72;5080353;28;20618;-83
2022/09/20 07:19:32;;;;;;;7.40;2.93;;;;;;;10.69;96.53;101308.31;5068834;28;21096;-82
2022/09/20 07:21:59;;;;;;;7.50;3.43;;;;;;;10.72;96.63;101302.84;5077027;28;20719;-83
2022/09/20 07:24:25;;;;;;;6.10;3.03;;;;;;;10.75;96.84;101310.63;5076910;28;20637;-82
2022/09/20 07:26:56;;;;;;;8.50;2.90;;;;;;;10.80;96.59;101315.72;5067247;28;20643;-82
2022/09/20 07:29:24;;;;;;;8.63;3.30;;;;;;;10.84;96.74;101317.28;5070659;28;20694;-82
2022/09/20 07:31:51;;;;;;;11.90;3.57;;;;;;;10.87;96.81;101316.25;5073348;28;20201;-82
2022/09/20 07:34:19;;;;;;;7.30;2.83;;;;;;;10.91;96.86;101324.03;5071274;28;20220;-82
2022/09/20 07:36:45;;;;;;;12.47;3.00;;;;;;;10.94;96.95;101328.28;5070886;28;20208;-83
2022/09/20 07:39:12;;;;;;;7.43;2.83;;;;;;;10.98;96.86;101325.41;5072949;28;20623;-83
2022/09/20 07:41:38;;;;;;;9.47;2.73;;;;;;;10.99;96.59;101321.78;5068977;28;20212;-83
2022/09/20 07:46:47;;;;;;;7.80;3.23;;;;;;;11.05;96.27;101325.94;5070373;28;20205;-83
2022/09/20 07:49:14;;;;;;;11.03;3.33;;;;;;;11.09;96.38;101323.03;5072126;28;20240;-83
2022/09/20 07:51:40;;;;;;;7.43;2.80;;;;;;;11.12;96.09;101330.81;5068660;28;20209;-83
2022/09/20 07:54:07;;;;;;;7.53;3.33;;;;;;;11.16;95.78;101330.66;5071665;28;20229;-82
2022/09/20 07:56:33;;;;;;;6.80;3.07;;;;;;;11.18;95.57;101339.44;5082911;28;20201;-83
2022/09/20 07:59:00;;;;;;;11.73;3.83;;;;;;;11.19;95.31;101343.81;5075463;28;20207;-83
2022/09/20 08:01:26;;;;;;;9.23;4.20;;;;;;;11.21;95.20;101341.94;5083674;28;20214;-83
2022/09/20 08:03:54;;;;;;;10.40;3.13;;;;;;;11.22;94.64;101343.66;5070807;28;20229;-82
2022/09/20 08:06:21;;;;;;;7.67;3.77;;;;;;;11.22;94.76;101355.19;5069983;28;20567;-82
2022/09/20 08:08:48;;;;;;;9.07;3.60;;;;;;;11.24;94.54;101355.97;5074946;28;20209;-83
2022/09/20 08:11:17;;;;;;;7.97;3.10;;;;;;;11.25;94.21;101349.69;5071163;28;20246;-82
2022/09/20 08:13:45;;;;;;;8.57;3.93;;;;;;;11.28;94.15;101354.00;5069799;28;20586;-83
2022/09/20 08:16:13;;;;;;;8.73;4.17;;;;;;;11.34;94.52;101356.31;5071160;28;20212;-82
2022/09/20 08:18:40;;;;;;;5.90;3.63;;;;;;;11.43;94.43;101356.69;5074936;28;20241;-83
2022/09/20 08:21:10;;;;;;;9.23;3.43;;;;;;;11.57;94.57;101361.25;5073313;28;20226;-82
2022/09/20 08:23:37;;;;;;;9.37;3.40;;;;;;;11.73;94.32;101361.22;5073456;28;20266;-82
2022/09/20 08:26:05;;;;;;;7.63;3.07;;;;;;;11.86;94.46;101361.41;5072981;28;20221;-82
2022/09/20 08:28:32;;;;;;;8.93;3.70;;;;;;;11.96;93.96;101359.97;5070035;28;20229;-83
2022/09/20 08:31:02;;;;;;;6.30;3.17;;;;;;;12.05;93.03;101368.28;5079824;28;20201;-83
2022/09/20 08:33:29;;;;;;;9.70;2.93;;;;;;;12.14;92.65;101365.09;5066422;28;20287;-82
2022/09/20 08:35:55;;;;;;;7.90;3.03;;;;;;;12.25;91.92;101364.44;5074700;28;20628;-82
2022/09/20 08:38:26;;;;;;;5.83;3.30;;;;;;;12.40;91.87;101374.22;5069805;28;20594;-82
2022/09/20 08:40:56;;;;;;;7.00;3.43;;;;;;;12.58;91.40;101363.38;5067691;28;20208;-82
2022/09/20 08:43:27;;;;;;;8.40;3.07;;;;;;;12.73;90.84;101370.47;5069350;28;20229;-82
2022/09/20 08:45:54;;;;;;;6.87;3.27;;;;;;;12.90;90.69;101364.94;5069959;28;20231;-82
2022/09/20 08:48:25;;;;;;;7.07;3.30;;;;;;;13.07;89.59;101369.28;5067295;28;20205;-82
2022/09/20 08:50:52;;;;;;;6.00;3.40;;;;;;;13.25;88.76;101368.16;5068938;28;20193;-82
2022/09/20 08:53:18;;;;;;;5.47;3.77;;;;;;;13.35;86.98;101363.94;5074375;28;20251;-83
2022/09/20 08:55:46;;;;;;;6.23;3.77;;;;;;;13.44;86.14;101373.16;5070372;28;20679;-82
2022/09/20 08:58:13;;;;;;;5.90;3.80;;;;;;;13.47;85.01;101373.84;5071945;28;20566;-82
2022/09/20 09:00:43;;;;;;;3.83;2.67;;;;;;;13.45;83.38;101372.22;5074765;28;20220;-83
2022/09/20 09:03:13;;;;;;;5.83;4.00;;;;;;;13.41;82.32;101373.38;5068945;28;20584;-83
2022/09/20 09:05:45;;;;;;;8.43;3.67;;;;;;;13.39;82.40;101380.66;5067390;28;20563;-82
2022/09/20 09:08:15;;;;;;;4.30;3.00;;;;;;;13.39;81.69;101376.16;5068239;28;20223;-82
2022/09/20 09:10:44;;;;;;;5.50;3.10;;;;;;;13.37;81.58;101382.56;5073321;28;20208;-82
2022/09/20 09:13:25;;;;;;;4.57;3.23;;;;;;;13.36;81.20;101375.50;5068542;28;20896;-82
2022/09/20 09:15:56;;;;;;;6.13;4.00;;;;;;;13.39;81.04;101384.19;5077058;28;20219;-83
2022/09/20 09:18:30;;;;;;;4.97;3.70;;;;;;;13.44;81.34;101383.88;5082717;28;20232;-82
2022/09/20 09:20:58;;;;;;;6.00;4.30;;;;;;;13.47;80.60;101386.34;5076403;28;20235;-83
2022/09/20 09:23:28;;;;;;;7.73;4.30;;;;;;;13.51;80.12;101385.22;5072725;28;20622;-82
2022/09/20 09:25:55;;;;;;;8.07;5.20;;;;;;;13.53;80.16;101386.84;5075272;28;20722;-82
2022/09/20 09:28:25;;;;;;;6.93;6.13;;;;;;;13.57;79.77;101389.31;5063332;28;20239;-83
2022/09/20 09:30:52;;;;;;;7.97;5.90;;;;;;;13.59;79.32;101387.41;5076902;28;20670;-82
2022/09/20 09:33:26;;;;;;;8.23;5.70;;;;;;;13.63;79.24;101387.09;5064740;28;20216;-83
2022/09/20 09:35:59;;;;;;;6.73;5.47;;;;;;;13.66;78.95;101386.91;5071647;28;20291;-83
2022/09/20 09:38:30;;;;;;;7.50;5.33;;;;;;;13.70;78.36;101387.56;5063841;28;20216;-82
2022/09/20 09:40:58;;;;;;;6.53;5.13;;;;;;;13.77;78.12;101389.75;5064213;28;20288;-83
2022/09/20 09:43:29;;;;;;;8.00;5.57;;;;;;;13.82;78.34;101386.75;5064001;28;20234;-83
2022/09/20 09:45:56;;;;;;;8.53;5.93;;;;;;;13.86;78.00;101386.47;5072307;28;20686;-83
2022/09/20 09:48:25;;;;;;;11.03;6.03;;;;;;;13.93;77.74;101391.44;5069094;28;20208;-82
2022/09/20 09:51:08;;;;;;;8.07;5.70;;;;;;;13.97;77.29;101395.63;5070704;28;20197;-82
2022/09/20 09:53:35;;;;;;;10.57;5.37;;;;;;;14.03;77.56;101397.88;5063743;28;20252;-82
2022/09/20 09:56:20;;;;;;;6.27;4.97;;;;;;;14.10;77.51;101388.50;5066845;28;20224;-82
2022/09/20 09:59:01;;;;;;;6.17;3.57;;;;;;;14.16;77.14;101385.41;5059545;28;20261;-82
2022/09/20 10:01:37;;;;;;;4.70;3.70;;;;;;;14.22;76.27;101393.91;5066105;28;20204;-82
2022/09/20 10:04:14;;;;;;;5.47;3.37;;;;;;;14.27;75.70;101388.25;5063268;28;20262;-83
2022/09/20 10:06:48;;;;;;;9.97;3.00;;;;;;;14.34;75.74;101388.66;5059382;28;20216;-83
2022/09/20 10:09:30;;;;;;;4.93;2.77;;;;;;;14.41;75.11;101387.34;5061237;28;20201;-83
2022/09/20 10:12:12;;;;;;;4.03;2.83;;;;;;;14.49;74.86;101393.06;5071533;28;20193;-83
2022/09/20 10:14:57;;;;;;;5.20;1.70;;;;;;;14.59;74.76;101386.09;5067286;28;20237;-83
2022/09/20 10:17:38;;;;;;;5.30;1.30;;;;;;;14.65;73.72;101384.81;5066920;28;20209;-83
2022/09/20 10:20:27;;;;;;;4.67;1.57;;;;;;;14.66;72.95;101384.72;5062676;28;20208;-82
2022/09/20 10:23:07;;;;;;;7.03;1.70;;;;;;;14.70;72.33;101380.84;5069961;28;20285;-83
2022/09/20 10:25:42;;;;;;;5.87;1.70;;;;;;;14.71;71.81;101385.22;5065361;28;20204;-83
2022/09/20 10:28:23;;;;;;;3.27;1.77;;;;;;;14.76;72.20;101387.59;5062284;28;20554;-83
2022/09/20 10:31:03;;;;;;;3.57;1.43;;;;;;;14.79;71.71;101382.91;5066010;28;20208;-83
2022/09/20 10:33:38;;;;;;;3.70;1.37;;;;;;;14.81;70.89;101389.00;5065689;28;20228;-82
2022/09/20 10:36:16;;;;;;;2.93;1.43;;;;;;;14.82;70.98;101393.41;5075324;28;20221;-82
2022/09/20 10:38:49;;;;;;;3.70;1.30;;;;;;;14.85;70.50;101389.66;5075077;28;20576;-82
2022/09/20 10:44:51;;;;;;;3.73;1.30;;;;;;;14.85;70.22;101401.25;5076224;28;20212;-83
2022/09/20 10:47:27;;;;;;;2.77;1.37;;;;;;;14.89;70.30;101393.81;5078714;28;20576;-83
2022/09/20 10:50:03;;;;;;;2.07;1.10;;;;;;;14.92;70.00;101393.63;5075762;28;20497;-82
2022/09/20 10:52:56;;;;;;;3.27;1.23;;;;;;;14.95;70.35;101390.72;5072168;28;20308;-82
2022/09/20 10:55:31;;;;;;;2.93;1.40;;;;;;;14.99;69.92;101396.75;5075163;28;20214;-82
2022/09/20 10:58:30;;;;;;;5.43;1.67;;;;;;;15.04;69.75;101391.91;5069980;28;20231;-82
2022/09/20 11:01:02;;;;;;;7.20;1.37;;;;;;;15.10;69.14;101392.31;5083830;28;20669;-83
2022/09/20 11:03:46;;;;;;;2.70;0.83;;;;;;;15.15;68.74;101389.31;5069620;28;20230;-83
2022/09/20 11:06:20;;;;;;;4.03;1.30;;;;;;;15.17;68.22;101396.31;5077453;28;20205;-83
2022/09/20 11:08:50;;;;;;;2.30;0.83;;;;;;;15.25;68.07;101385.00;5073577;28;20732;-83
2022/09/20 11:11:22;;;;;;;3.07;1.00;;;;;;;15.35;68.24;101394.16;5073755;28;20209;-83
2022/09/20 11:14:02;;;;;;;2.47;0.97;;;;;;;15.43;66.94;101388.19;5082079;28;20241;-83
2022/09/20 11:16:36;;;;;;;4.37;1.13;;;;;;;15.44;65.67;101393.47;5075453;28;20227;-83
2022/09/20 11:19:15;;;;;;;2.20;1.30;;;;;;;15.50;65.72;101386.81;5084631;28;20201;-83
2022/09/20 11:21:49;;;;;;;3.30;0.90;;;;;;;15.58;64.86;101389.84;5071826;28;20199;-83
2022/09/20 11:24:26;;;;;;;4.03;1.67;;;;;;;15.60;63.75;101394.09;5077843;28;20291;-83
2022/09/20 11:26:56;;;;;;;1.97;0.90;;;;;;;15.67;64.26;101386.47;5079618;28;20198;-83
2022/09/20 11:29:31;;;;;;;3.97;1.20;;;;;;;15.76;64.24;101393.88;5072765;28;20211;-83
2022/09/20 11:32:05;;;;;;;3.57;0.80;;;;;;;15.89;64.09;101391.13;5076440;28;20199;-83
2022/09/20 11:34:37;;;;;;;1.63;0.80;;;;;;;15.97;63.23;101394.94;5071944;28;20685;-83
2022/09/20 11:37:03;;;;;;;4.00;0.80;;;;;;;16.04;62.81;101390.00;5068801;28;20200;-83
2022/09/20 11:39:37;;;;;;;3.17;0.77;;;;;;;16.08;62.24;101396.88;5067152;28;20205;-83
2022/09/20 11:42:06;;;;;;;4.13;1.30;;;;;;;16.11;61.39;101390.41;5064220;28;20219;-83
2022/09/20 11:44:36;;;;;;;3.00;0.87;;;;;;;16.15;60.99;101397.25;5062585;28;20212;-83
2022/09/20 11:47:09;;;;;;;3.73;0.90;;;;;;;16.21;60.51;101399.47;5062537;28;20716;-83
2022/09/20 11:49:55;;;;;;;2.50;0.90;;;;;;;16.24;60.21;101396.56;5061919;28;20297;-83
2022/09/20 11:52:46;;;;;;;4.37;2.20;;;;;;;16.32;60.14;101395.00;5067143;28;20231;-82
2022/09/20 11:55:42;;;;;;;3.37;0.90;;;;;;;16.41;60.04;101397.97;5066567;28;20229;-83
2022/09/20 11:58:12;;;;;;;2.50;0.90;;;;;;;16.43;59.72;101391.53;5019145;28;20205;-82
2022/09/20 12:00:41;;;;;;;3.97;1.10;;;;;;;16.47;59.38;101397.53;5058701;28;20222;-82
2022/09/20 12:03:23;;;;;;;2.57;0.80;;;;;;;16.48;59.20;101402.75;5064219;28;20286;-82
2022/09/20 12:05:58;;;;;;;2.17;0.60;;;;;;;16.44;58.37;101398.63;5060797;28;20235;-82
2022/09/20 12:08:29;;;;;;;2.93;0.80;;;;;;;16.42;57.31;101394.31;5062563;28;20207;-82
2022/09/20 12:10:59;;;;;;;1.33;0.90;;;;;;;16.41;57.63;101389.91;5060774;28;20670;-82
2022/09/20 12:13:27;;;;;;;1.40;1.00;;;;;;;16.42;57.43;101384.44;5059428;28;20658;-83
2022/09/20 12:16:00;;;;;;;3.27;1.10;;;;;;;16.43;57.33;101385.28;5062295;28;20248;-83
2022/09/20 12:18:31;;;;;;;3.87;1.30;;;;;;;16.44;57.34;101382.47;5057572;28;20211;-83
2022/09/20 12:21:17;;;;;;;1.70;1.00;;;;;;;16.44;57.37;101379.78;5060799;28;20208;-84
2022/09/20 12:24:00;;;;;;;3.60;1.00;;;;;;;16.41;56.62;101382.72;5063144;28;20247;-83
2022/09/20 12:26:41;;;;;;;2.90;0.90;;;;;;;16.41;56.70;101384.53;5064466;28;20598;-82
2022/09/20 12:29:53;;;;;;;2.47;0.80;;;;;;;16.45;57.01;101377.97;5065798;28;20615;-83